Torda, Románia

2016 Szeptember 24 11:50 PM (EEST időzóna) (GMT +0300)
ICLUJCLU2 | | Change Station

Elev 1010 ft 46.78 °N, 23.72 °E | Updated 9 minutes ago

Scattered Clouds
Elszórtan felhős
54.3 °F
Hőérzet 54.3 °F
N
0.0
Szél: változó Szél: from nyugat-délnyugati
Gusts 0.0 mph

Ma
High -- | Low -- °F
--% Csapadék valószínű
Tegnapi
High -- | Low -- °F
Precip. -- hvlyk.
Légnyomás 30.27 hvlyk.
Látótávolság 6.2 mérföld
Felhők Elszórtan felhős 6000 ft
Harmatpont 50 °F
Páratartalom 84%
Rainfall 0.00 hvlyk.
Hóréteg vastagsága Not available.
7:14 AM 7:18 PM
Fogyó holdsarló, 34% visible
METAR LRCL 242030Z 27005KT 9999 SCT060 12/09 Q1025
Légnyomás 30.27 hvlyk.
Látótávolság 6.2 mérföld
Felhők Elszórtan felhős 6000 ft
Harmatpont 50 °F
Páratartalom 84%
Rainfall 0.00 hvlyk.
Hóréteg vastagsága Not available.
7:14 AM 7:18 PM
Fogyó holdsarló, 34% visible
METAR LRCL 242030Z 27005KT 9999 SCT060 12/09 Q1025

10-Day Weather Forecast

×

Almanac

Csillagászat

Sep. 24, 2016 Kel Nyugszik
Tényleges idő
Civil alkony
Tengerészeti alkony
Csillagászati alkony
Hold
Látható fény időtartama
A nap hossza
Tomorrow will be .
, % of the Moon is Illuminated

Today's Extremes

Country Highs Country Lows

Community

WunderPhotos

Upload Photos

1,941,423 Fotók feltöltve.

WunderBlog® & News

Nearby

A levegő minősége

  A levegő minősége AQ Index Szennyezőanyag
Not available.

Hóréteg vastagsága

Station Depth Elevation

Earthquake Activity

város Distance Mag. Time & Date
Minimum magnitude displayed is 2.5.

Coastal Water Temperatures

Hely Hőmérséklet

Stations

Közeli meteorológiai állomások

Station Location Hőm. Hőérzet Harmatpont Páratartalom Szél: Precip. Elev Frissítve Type